Time;durP1;ratioP1;P1;durP2;ratioP2;P2;SDS_P1;SDS_P2;PMS_P1;PMS_P2;Temp;Humidity;BMP_temperature;BMP_pressure;BME280_temperature;BME280_humidity;BME280_pressure;Samples;Min_cycle;Max_cycle;Signal;HPM_P1;HPM_P2
2023/10/10 00:02:59;;;;;;;1999.90;999.90;;;;;;;15.73;100.00;102025.34;10094438;29;20080;-65
2023/10/10 00:08:05;;;;;;;1999.90;999.90;;;;;;;15.54;100.00;102030.88;10093635;29;20068;-65
2023/10/10 00:13:07;;;;;;;1999.90;999.90;;;;;;;15.46;100.00;102031.28;10093949;29;20064;-65
2023/10/10 00:18:11;;;;;;;1999.90;999.90;;;;;;;15.44;100.00;102025.25;10093256;29;20422;-64
2023/10/10 00:23:16;;;;;;;1999.90;999.90;;;;;;;15.36;100.00;102016.94;10093724;29;20049;-65
2023/10/10 00:28:21;;;;;;;1999.90;999.90;;;;;;;15.39;100.00;102019.41;10107509;29;20080;-64
2023/10/10 00:33:25;;;;;;;1999.90;999.90;;;;;;;15.55;100.00;102012.28;10106890;29;20053;-65
2023/10/10 00:38:29;;;;;;;1999.90;999.90;;;;;;;15.09;100.00;102014.97;10093331;29;20100;-64
2023/10/10 00:43:32;;;;;;;1999.90;999.90;;;;;;;15.08;100.00;102020.31;10090395;29;20510;-65
2023/10/10 00:48:38;;;;;;;1999.90;999.90;;;;;;;14.99;100.00;102021.69;10093052;29;20063;-65
2023/10/10 00:53:45;;;;;;;1999.90;999.90;;;;;;;14.74;100.00;102009.03;10106243;29;20132;-64
2023/10/10 00:58:48;;;;;;;1999.90;999.90;;;;;;;14.69;100.00;102009.28;10106650;29;20049;-65
2023/10/10 01:03:50;;;;;;;1999.90;999.90;;;;;;;14.75;100.00;102013.38;10092599;29;20045;-65
2023/10/10 01:09:20;;;;;;;1999.90;999.90;;;;;;;14.68;100.00;101999.69;10091645;29;20061;-65
2023/10/10 01:14:26;;;;;;;1999.90;999.90;;;;;;;14.78;100.00;101994.78;10091662;29;20514;-65
2023/10/10 01:19:29;;;;;;;1999.90;999.90;;;;;;;14.62;100.00;101992.13;10091092;29;20100;-64
2023/10/10 01:24:31;;;;;;;1999.90;999.90;;;;;;;14.41;100.00;101987.06;10092126;29;20128;-65
2023/10/10 01:29:40;;;;;;;1999.90;999.90;;;;;;;14.52;100.00;101975.09;10091943;29;20052;-65
2023/10/10 01:34:43;;;;;;;1999.90;999.90;;;;;;;14.58;100.00;101980.03;10091220;29;20057;-64
2023/10/10 01:40:11;;;;;;;1999.90;999.90;;;;;;;14.64;100.00;101977.06;10091843;29;20132;-65
2023/10/10 01:45:19;;;;;;;1999.90;999.90;;;;;;;14.48;100.00;101959.44;10103882;29;20593;-65
2023/10/10 01:50:22;;;;;;;1999.90;999.90;;;;;;;14.44;100.00;101955.28;10091053;29;20491;-65
2023/10/10 01:55:25;;;;;;;1999.90;999.90;;;;;;;14.29;100.00;101943.81;10095150;29;20053;-64
2023/10/10 02:00:34;;;;;;;1999.90;999.90;;;;;;;14.33;100.00;101941.00;10112399;29;20053;-64
2023/10/10 02:10:45;;;;;;;1999.90;999.90;;;;;;;14.15;100.00;101940.22;10111284;29;20498;-64
2023/10/10 02:15:48;;;;;;;1999.90;999.90;;;;;;;14.05;100.00;101940.69;10097625;29;20049;-64
2023/10/10 02:20:51;;;;;;;1999.90;999.90;;;;;;;14.09;100.00;101949.31;10242108;23;20083;-65
2023/10/10 02:25:53;;;;;;;1999.90;999.90;;;;;;;14.18;100.00;101943.53;10445990;28;20057;-65
2023/10/10 02:31:02;;;;;;;1999.90;999.90;;;;;;;14.18;100.00;101937.44;10463224;28;20049;-65
2023/10/10 02:36:12;;;;;;;1999.90;999.90;;;;;;;13.90;100.00;101941.53;10462561;28;20459;-65
2023/10/10 02:46:18;;;;;;;1999.90;999.90;;;;;;;13.72;100.00;101959.16;10444380;28;20075;-65
2023/10/10 02:51:20;;;;;;;1999.90;999.90;;;;;;;13.64;100.00;101954.28;10444152;28;20060;-65
2023/10/10 02:56:24;;;;;;;1999.90;999.90;;;;;;;13.52;100.00;101947.88;10462357;28;20056;-65
2023/10/10 03:06:47;;;;;;;1999.90;999.90;;;;;;;13.52;100.00;101950.50;10460986;28;20056;-65
2023/10/10 03:12:04;;;;;;;1999.90;999.90;;;;;;;13.48;100.00;101940.22;10443947;28;20127;-65
2023/10/10 03:17:31;;;;;;;1999.90;999.90;;;;;;;13.34;100.00;101948.81;10445947;28;20045;-65
2023/10/10 03:22:52;;;;;;;1999.90;999.90;;;;;;;13.46;100.00;101947.34;10460570;28;20049;-65
2023/10/10 03:28:04;;;;;;;1999.90;999.90;;;;;;;13.62;100.00;101947.41;10460436;28;20052;-65
2023/10/10 03:33:10;;;;;;;1999.90;999.90;;;;;;;13.70;100.00;101940.81;10444473;28;20084;-65
2023/10/10 03:38:42;;;;;;;1999.90;999.90;;;;;;;13.56;100.00;101938.88;10460746;28;20052;-65
2023/10/10 05:25:23;;;;;;;1999.90;999.90;;;;;;;14.53;100.00;101872.22;10456935;28;20044;-65
2023/10/10 05:30:27;;;;;;;1999.90;999.90;;;;;;;14.31;100.00;101862.06;10456299;28;20147;-65
2023/10/10 05:35:32;;;;;;;1999.90;999.90;;;;;;;14.38;100.00;101858.13;10439154;28;20090;-65
2023/10/10 05:40:38;;;;;;;1999.90;999.90;;;;;;;14.36;100.00;101854.75;10456615;28;20060;-65
2023/10/10 05:45:41;;;;;;;1999.90;999.90;;;;;;;14.30;100.00;101850.66;10439245;28;20041;-65
2023/10/10 05:50:43;;;;;;;1999.90;999.90;;;;;;;14.18;100.00;101850.50;10438785;28;20068;-65
2023/10/10 05:55:53;;;;;;;1999.90;999.90;;;;;;;14.27;100.00;101840.31;10455574;28;20379;-65
2023/10/10 06:00:55;;;;;;;1999.90;999.90;;;;;;;14.27;100.00;101827.16;10456322;28;20059;-65
2023/10/10 06:05:58;;;;;;;1999.90;999.90;;;;;;;14.25;100.00;101826.34;10455534;28;20045;-65
2023/10/10 06:11:01;;;;;;;1999.90;999.90;;;;;;;14.22;100.00;101825.69;10456097;28;20049;-65
2023/10/10 06:16:14;;;;;;;1999.90;999.90;;;;;;;14.18;100.00;101827.66;10421985;28;20045;-65
2023/10/10 06:21:18;;;;;;;1999.90;999.90;;;;;;;14.13;100.00;101825.28;10437955;28;20057;-65
2023/10/10 06:26:21;;;;;;;1999.90;999.90;;;;;;;14.22;100.00;101830.97;10455058;28;20405;-68
2023/10/10 06:31:33;;;;;;;1999.90;999.90;;;;;;;14.21;100.00;101834.53;10437510;28;20456;-68
2023/10/10 06:36:37;;;;;;;1999.90;999.90;;;;;;;14.29;100.00;101816.53;10437507;28;20495;-68
2023/10/10 06:41:42;;;;;;;1999.90;999.90;;;;;;;14.28;100.00;101820.94;10458615;28;20069;-69
2023/10/10 06:46:47;;;;;;;1999.90;999.90;;;;;;;14.40;100.00;101821.16;10445349;28;20052;-68
2023/10/10 06:51:50;;;;;;;1999.90;999.90;;;;;;;14.29;100.00;101806.84;10445123;28;20127;-68
2023/10/10 07:02:13;;;;;;;1999.90;999.90;;;;;;;14.73;100.00;101809.66;10445827;28;20049;-68
2023/10/10 07:07:18;;;;;;;1999.90;999.90;;;;;;;14.65;100.00;101810.09;10461917;28;20053;-70
2023/10/10 07:12:21;;;;;;;1999.90;999.90;;;;;;;14.80;100.00;101798.63;10460933;28;20476;-66
2023/10/10 07:17:27;;;;;;;1999.90;999.90;;;;;;;15.08;100.00;101791.72;10461492;28;20049;-66
2023/10/10 07:22:34;;;;;;;1999.90;999.90;;;;;;;15.28;100.00;101792.28;10460807;28;20140;-65
2023/10/10 07:27:41;;;;;;;1999.90;999.90;;;;;;;15.33;100.00;101795.47;10443968;28;20055;-66
2023/10/10 07:32:50;;;;;;;1999.90;999.90;;;;;;;15.32;100.00;101799.09;10460275;28;20053;-66
2023/10/10 07:37:58;;;;;;;1999.90;999.90;;;;;;;15.26;100.00;101802.09;10460737;28;20079;-68
2023/10/10 07:43:03;;;;;;;1999.90;999.90;;;;;;;15.39;100.00;101801.22;10442202;28;20472;-68
2023/10/10 07:53:12;;;;;;;1999.90;999.90;;;;;;;15.41;100.00;101803.78;10459618;28;20052;-69
2023/10/10 07:58:15;;;;;;;1999.90;999.90;;;;;;;15.96;100.00;101802.97;10460011;28;20056;-68
2023/10/10 08:03:20;;;;;;;1999.90;999.90;;;;;;;16.51;100.00;101792.41;10459778;28;20044;-68
2023/10/10 08:08:25;;;;;;;1999.90;999.90;;;;;;;16.62;100.00;101784.56;10458931;28;20049;-68
2023/10/10 08:13:28;;;;;;;1999.90;999.90;;;;;;;16.82;100.00;101777.09;10441941;28;20044;-68
2023/10/10 08:18:53;;;;;;;1999.90;999.90;;;;;;;17.33;100.00;101779.78;10459088;28;20094;-68
2023/10/10 08:23:58;;;;;;;1999.90;999.90;;;;;;;16.81;100.00;101780.69;10458134;28;20055;-68
2023/10/10 08:29:00;;;;;;;1999.90;999.90;;;;;;;17.14;100.00;101768.75;10458629;28;20076;-68
2023/10/10 08:34:03;;;;;;;1999.90;999.90;;;;;;;17.08;100.00;101767.41;10458331;28;20124;-69
2023/10/10 08:39:25;;;;;;;1999.90;999.90;;;;;;;17.39;100.00;101768.72;10440659;28;20088;-68
2023/10/10 08:44:28;;;;;;;1999.90;999.90;;;;;;;17.53;100.00;101770.38;10458166;28;20049;-68
2023/10/10 08:49:30;;;;;;;1999.90;999.90;;;;;;;17.81;100.00;101765.75;10440262;28;20052;-68
2023/10/10 08:54:33;;;;;;;1999.90;999.90;;;;;;;18.06;100.00;101777.25;10457708;28;20053;-69
2023/10/10 08:59:36;;;;;;;1999.90;999.90;;;;;;;18.71;100.00;101782.06;10423553;28;20055;-69
2023/10/10 09:04:39;;;;;;;1999.90;999.90;;;;;;;19.04;93.87;101783.09;10422705;28;20084;-69
2023/10/10 09:09:43;;;;;;;1999.90;999.90;;;;;;;19.17;91.21;101769.72;10438945;28;20500;-68
2023/10/10 09:14:55;;;;;;;1999.90;999.90;;;;;;;18.87;91.70;101771.13;10456411;28;20436;-68
2023/10/10 09:19:58;;;;;;;1999.90;999.90;;;;;;;19.59;89.58;101761.97;10440445;28;20095;-68
2023/10/10 09:25:17;;;;;;;1999.90;999.90;;;;;;;20.12;87.36;101755.91;10455979;28;20409;-68
2023/10/10 09:30:21;;;;;;;1999.90;999.90;;;;;;;20.09;87.21;101760.63;10440993;28;20513;-68
2023/10/10 09:35:28;;;;;;;1999.90;999.90;;;;;;;20.13;86.67;101752.28;10456542;28;20127;-68
2023/10/10 09:40:33;;;;;;;1999.90;999.90;;;;;;;19.86;84.13;101753.59;10439123;28;20496;-68
2023/10/10 09:51:15;;;;;;;1999.90;999.90;;;;;;;21.56;76.10;101735.72;10440870;28;20520;-68
2023/10/10 09:56:21;;;;;;;1999.90;999.90;;;;;;;22.80;74.42;101734.13;10456297;28;20051;-68
2023/10/10 10:01:24;;;;;;;1999.90;999.90;;;;;;;22.38;75.87;101738.00;10438974;28;20048;-68
2023/10/10 10:06:51;;;;;;;1999.90;999.90;;;;;;;23.57;70.64;101729.41;10456147;28;20087;-68
2023/10/10 10:12:41;;;;;;;1999.90;999.90;;;;;;;24.29;69.53;101724.91;10456080;28;20053;-68
2023/10/10 10:18:13;;;;;;;1999.90;999.90;;;;;;;24.75;64.74;101731.94;10446416;28;20053;-68
2023/10/10 10:23:26;;;;;;;1999.90;999.90;;;;;;;25.27;62.79;101729.19;10445629;28;20084;-69
2023/10/10 10:28:29;;;;;;;1999.90;999.90;;;;;;;24.48;63.23;101739.09;10445813;28;20124;-69
2023/10/10 10:33:35;;;;;;;1999.90;999.90;;;;;;;24.19;64.55;101728.66;10463095;28;20128;-69
2023/10/10 10:38:39;;;;;;;1999.90;999.90;;;;;;;25.77;62.85;101711.34;10463153;28;20133;-69
2023/10/10 10:43:49;;;;;;;1999.90;999.90;;;;;;;25.58;63.62;101710.66;10445538;28;20053;-69
2023/10/10 10:49:05;;;;;;;1999.90;999.90;;;;;;;25.39;57.35;101702.94;10444710;28;20045;-69
2023/10/10 10:54:09;;;;;;;1999.90;999.90;;;;;;;26.57;55.93;101702.59;10461811;28;20401;-69
2023/10/10 10:59:12;;;;;;;1999.90;999.90;;;;;;;26.52;57.49;101700.44;10444744;28;20072;-69
2023/10/10 11:04:26;;;;;;;1999.90;999.90;;;;;;;27.42;55.16;101693.91;10443895;28;20045;-64
2023/10/10 11:09:28;;;;;;;1999.90;999.90;;;;;;;27.87;52.92;101699.44;10445291;28;20060;-65
2023/10/10 11:14:32;;;;;;;1999.90;999.90;;;;;;;26.29;56.29;101707.53;10443306;28;20477;-65
2023/10/10 11:24:37;;;;;;;1999.90;999.90;;;;;;;28.26;52.83;101694.94;10460731;28;20055;-64
2023/10/10 11:29:47;;;;;;;1999.90;999.90;;;;;;;27.13;51.79;101696.38;10442077;28;20509;-65
2023/10/10 11:34:57;;;;;;;1999.90;999.90;;;;;;;28.60;51.43;101685.53;10443441;28;20099;-65
2023/10/10 11:40:19;;;;;;;1999.90;999.90;;;;;;;27.00;52.91;101681.69;10443574;28;20049;-64
2023/10/10 11:45:26;;;;;;;1999.90;999.90;;;;;;;26.73;52.67;101664.16;10459923;28;20107;-64
2023/10/10 11:50:49;;;;;;;1999.90;999.90;;;;;;;26.52;54.02;101662.84;10460376;28;20060;-65
2023/10/10 11:55:52;;;;;;;1999.90;999.90;;;;;;;26.55;54.99;101658.97;10441829;28;20128;-64
2023/10/10 12:01:04;;;;;;;1999.90;999.90;;;;;;;26.77;53.90;101648.53;10459349;28;20048;-65
2023/10/10 12:06:26;;;;;;;1999.90;999.90;;;;;;;26.88;55.09;101646.28;10459792;28;20132;-64
2023/10/10 12:11:32;;;;;;;1999.90;999.90;;;;;;;27.16;56.83;101636.91;10441350;28;20409;-64
2023/10/10 12:16:35;;;;;;;1999.90;999.90;;;;;;;26.82;53.00;101638.94;10459277;28;20132;-65
2023/10/10 12:21:37;;;;;;;1999.90;999.90;;;;;;;26.51;52.57;101631.66;10458708;28;20057;-64
2023/10/10 12:26:41;;;;;;;1999.90;999.90;;;;;;;25.97;53.40;101628.72;10459056;28;20051;-64
2023/10/10 12:31:44;;;;;;;1999.90;999.90;;;;;;;28.26;50.78;101631.16;10458176;28;20485;-64
2023/10/10 12:36:49;;;;;;;1999.90;999.90;;;;;;;27.15;50.27;101619.94;10440214;28;20420;-64
2023/10/10 12:41:53;;;;;;;1999.90;999.90;;;;;;;26.51;54.90;101620.91;10458275;28;20053;-64
2023/10/10 12:47:06;;;;;;;1999.90;999.90;;;;;;;27.14;53.78;101609.38;10458185;28;20055;-64
2023/10/10 12:52:11;;;;;;;1999.90;999.90;;;;;;;25.76;53.54;101608.59;10458028;28;20147;-64
2023/10/10 12:57:15;;;;;;;1999.90;999.90;;;;;;;25.47;57.78;101611.81;10457816;28;20068;-64
2023/10/10 13:02:17;;;;;;;1999.90;999.90;;;;;;;26.76;53.19;101606.56;10457034;28;20056;-64
2023/10/10 13:07:20;;;;;;;1999.90;999.90;;;;;;;24.75;55.97;101609.59;10457651;28;20055;-64
2023/10/10 13:12:32;;;;;;;1999.90;999.90;;;;;;;25.49;52.54;101608.97;10456611;28;20060;-64
2023/10/10 13:17:50;;;;;;;1999.90;999.90;;;;;;;25.52;52.89;101600.56;10457412;28;20052;-64
2023/10/10 13:22:52;;;;;;;1999.90;999.90;;;;;;;24.95;53.68;101601.28;10456498;28;20143;-64
2023/10/10 13:27:56;;;;;;;1999.90;999.90;;;;;;;23.90;57.50;101607.56;10439405;28;20152;-64
2023/10/10 13:32:58;;;;;;;1999.90;999.90;;;;;;;23.96;60.96;101613.31;10456733;28;20049;-64
2023/10/10 13:38:01;;;;;;;1999.90;999.90;;;;;;;23.42;58.80;101605.31;10456167;28;20482;-64
2023/10/10 13:43:08;;;;;;;1999.90;999.90;;;;;;;22.64;66.24;101603.94;10438937;28;20052;-64
2023/10/10 13:48:13;;;;;;;1999.90;999.90;;;;;;;23.59;61.72;101607.16;10438817;28;20468;-64
2023/10/10 13:53:16;;;;;;;1999.90;999.90;;;;;;;22.75;64.19;101614.44;10464422;28;20049;-64
2023/10/10 13:58:19;;;;;;;1999.90;999.90;;;;;;;23.63;64.31;101608.50;10464672;28;20049;-64
2023/10/10 14:03:35;;;;;;;1999.90;999.90;;;;;;;24.12;62.11;101586.66;10463784;28;20128;-64
2023/10/10 14:08:38;;;;;;;1999.90;999.90;;;;;;;24.50;58.30;101573.81;10448318;28;20052;-64
2023/10/10 14:13:40;;;;;;;1999.90;999.90;;;;;;;24.18;63.95;101575.34;10446451;28;20056;-64
2023/10/10 14:18:43;;;;;;;1999.90;999.90;;;;;;;24.36;59.54;101580.63;10463258;28;20052;-64
2023/10/10 14:23:45;;;;;;;1999.90;999.90;;;;;;;24.30;59.34;101573.22;10462998;28;20533;-64
2023/10/10 14:28:51;;;;;;;1999.90;999.90;;;;;;;23.96;60.26;101559.84;10463580;28;20060;-64
2023/10/10 14:39:28;;;;;;;1999.90;999.90;;;;;;;23.85;58.64;101552.91;10173199;29;20052;-75
2023/10/10 14:44:31;;;;;;;1999.90;999.90;;;;;;;24.21;58.74;101550.09;10189231;29;20114;-75
2023/10/10 14:49:38;;;;;;;1999.90;999.90;;;;;;;26.33;54.86;101540.59;10188354;29;20394;-75
2023/10/10 14:54:48;;;;;;;1999.90;999.90;;;;;;;24.86;54.51;101536.13;10174388;28;20136;-74
2023/10/10 14:59:55;;;;;;;1999.90;999.90;;;;;;;22.98;65.26;101539.25;10173746;29;20058;-66
2023/10/10 15:05:08;;;;;;;1999.90;999.90;;;;;;;22.67;66.62;101544.94;10187373;29;20056;-66
2023/10/10 15:10:11;;;;;;;1999.90;999.90;;;;;;;21.91;72.76;101540.59;10173342;28;20565;-66
2023/10/10 15:15:16;;;;;;;1999.90;999.90;;;;;;;21.62;75.05;101532.63;10173668;28;20076;-66
2023/10/10 15:20:19;;;;;;;1999.90;999.90;;;;;;;25.62;64.16;101528.84;10172901;29;20064;-66
2023/10/10 15:25:21;;;;;;;1999.90;999.90;;;;;;;22.73;69.82;101516.78;10173482;28;20056;-66
2023/10/10 15:30:24;;;;;;;1999.90;999.90;;;;;;;21.46;79.13;101517.22;10173225;28;20064;-66
2023/10/10 15:35:29;;;;;;;1999.90;999.90;;;;;;;20.33;89.05;101518.44;10172659;29;20080;-66
2023/10/10 15:40:39;;;;;;;1999.90;999.90;;;;;;;20.48;88.64;101518.91;10202712;28;20421;-66
2023/10/10 15:45:42;;;;;;;1999.90;999.90;;;;;;;20.45;91.00;101514.69;10172859;28;20152;-65
2023/10/10 15:50:46;;;;;;;1999.90;999.90;;;;;;;20.24;90.94;101517.44;10172627;29;20063;-66
2023/10/10 15:56:10;;;;;;;1999.90;999.90;;;;;;;19.93;96.69;101506.78;10172367;28;20063;-66
2023/10/10 16:01:14;;;;;;;1999.90;999.90;;;;;;;19.54;99.07;101514.47;10185210;29;20102;-66
2023/10/10 16:06:22;;;;;;;1999.90;999.90;;;;;;;19.49;100.00;101508.72;10186731;28;20047;-65
2023/10/10 16:11:34;;;;;;;1999.90;999.90;;;;;;;19.10;100.00;101513.72;10171197;28;20486;-65
2023/10/10 16:16:47;;;;;;;1999.90;999.90;;;;;;;18.93;100.00;101512.47;10185183;28;20048;-65
2023/10/10 16:21:50;;;;;;;1999.90;999.90;;;;;;;18.68;100.00;101516.22;10185606;29;20505;-65
2023/10/10 16:27:01;;;;;;;1999.90;999.90;;;;;;;18.43;100.00;101512.88;10185464;28;20139;-65
2023/10/10 16:32:09;;;;;;;1999.90;999.90;;;;;;;18.26;100.00;101514.22;10170851;28;20064;-69
2023/10/10 16:37:18;;;;;;;1999.90;999.90;;;;;;;18.02;100.00;101511.66;10184466;28;20139;-65
2023/10/10 16:42:23;;;;;;;1999.90;999.90;;;;;;;17.73;100.00;101512.06;10184965;28;20059;-71
2023/10/10 16:47:26;;;;;;;1999.90;999.90;;;;;;;17.63;100.00;101511.94;10170915;28;20106;-65
2023/10/10 16:52:28;;;;;;;1999.90;999.90;;;;;;;17.22;100.00;101512.41;10170782;28;20090;-65
2023/10/10 16:57:34;;;;;;;1999.90;999.90;;;;;;;17.13;100.00;101513.06;10200635;28;20048;-65
2023/10/10 17:02:40;;;;;;;1999.90;999.90;;;;;;;16.89;100.00;101505.97;10184346;29;20063;-65
2023/10/10 17:07:42;;;;;;;1999.90;999.90;;;;;;;16.61;100.00;101500.03;10169804;28;20492;-65
2023/10/10 17:12:45;;;;;;;1999.90;999.90;;;;;;;16.52;100.00;101490.09;10170194;28;20052;-65
2023/10/10 17:17:48;;;;;;;1999.90;999.90;;;;;;;16.54;100.00;101490.81;10184556;28;20131;-65
2023/10/10 17:22:50;;;;;;;1999.90;999.90;;;;;;;16.43;100.00;101488.13;10183822;29;20386;-65
2023/10/10 17:27:53;;;;;;;1999.90;999.90;;;;;;;16.06;100.00;101486.25;10168977;28;20059;-65
2023/10/10 17:32:55;;;;;;;1999.90;999.90;;;;;;;15.96;100.00;101482.56;10169632;28;20211;-65
2023/10/10 17:37:59;;;;;;;1999.90;999.90;;;;;;;16.01;100.00;101482.25;10199326;28;20067;-65
2023/10/10 17:43:03;;;;;;;1999.90;999.90;;;;;;;15.92;100.00;101473.16;10183783;29;20052;-65
2023/10/10 17:48:17;;;;;;;1999.90;999.90;;;;;;;15.74;100.00;101473.44;10168672;28;20497;-65
2023/10/10 17:53:19;;;;;;;1999.90;999.90;;;;;;;15.66;100.00;101469.66;10168529;29;20517;-65
2023/10/10 17:58:21;;;;;;;1999.90;999.90;;;;;;;15.79;100.00;101465.25;10169052;28;20054;-65
2023/10/10 18:03:25;;;;;;;1999.90;999.90;;;;;;;15.70;100.00;101466.72;10168932;28;20052;-65
2023/10/10 18:08:27;;;;;;;1999.90;999.90;;;;;;;15.85;100.00;101461.34;10168775;28;20060;-65
2023/10/10 18:13:30;;;;;;;1999.90;999.90;;;;;;;15.58;100.00;101457.84;10168562;28;20131;-65
2023/10/10 18:18:35;;;;;;;1999.90;999.90;;;;;;;15.49;100.00;101453.16;10182485;28;20412;-65
2023/10/10 18:23:38;;;;;;;1999.90;999.90;;;;;;;15.77;100.00;101456.59;10168192;28;20071;-65
2023/10/10 18:28:41;;;;;;;1999.90;999.90;;;;;;;15.76;100.00;101447.81;10182717;29;20056;-65
2023/10/10 18:33:44;;;;;;;1999.90;999.90;;;;;;;16.06;100.00;101435.25;10198608;29;20456;-74
2023/10/10 18:38:48;;;;;;;1999.90;999.90;;;;;;;15.80;100.00;101435.25;10187463;29;20063;-74
2023/10/10 18:43:51;;;;;;;1999.90;999.90;;;;;;;15.81;100.00;101429.03;10174578;28;20048;-74
2023/10/10 18:48:57;;;;;;;1999.90;999.90;;;;;;;15.95;100.00;101423.63;10188980;28;20083;-74
2023/10/10 18:53:59;;;;;;;1999.90;999.90;;;;;;;15.93;100.00;101417.59;10173638;29;20504;-74
2023/10/10 18:59:02;;;;;;;1999.90;999.90;;;;;;;15.97;100.00;101423.53;10188718;29;20453;-74
2023/10/10 19:04:04;;;;;;;1999.90;999.90;;;;;;;16.22;100.00;101409.41;10172945;29;20052;-74
2023/10/10 19:09:11;;;;;;;1999.90;999.90;;;;;;;16.16;100.00;101415.97;10173389;28;20416;-74
2023/10/10 19:14:15;;;;;;;1999.90;999.90;;;;;;;16.58;99.42;101402.44;10187687;29;20052;-74
2023/10/10 19:19:19;;;;;;;1999.90;999.90;;;;;;;16.41;100.00;101400.16;10173036;28;20048;-74
2023/10/10 19:24:22;;;;;;;1999.90;999.90;;;;;;;16.52;99.88;101385.22;10187223;28;20459;-74
2023/10/10 19:29:28;;;;;;;1999.90;999.90;;;;;;;16.69;99.23;101376.06;10187325;29;20055;-74
2023/10/10 19:34:32;;;;;;;1999.90;999.90;;;;;;;17.20;92.73;101377.56;10173099;29;20048;-73
2023/10/10 19:39:35;;;;;;;1999.90;999.90;;;;;;;16.91;96.00;101377.09;10171102;29;20060;-74
2023/10/10 19:44:37;;;;;;;1999.90;999.90;;;;;;;17.29;90.15;101373.34;10187436;29;20052;-74
2023/10/10 19:49:40;;;;;;;1999.90;999.90;;;;;;;17.43;90.56;101374.94;10202492;29;20052;-74
2023/10/10 19:54:42;;;;;;;1999.90;999.90;;;;;;;17.58;87.49;101370.25;10202417;28;20482;-74
2023/10/10 19:59:45;;;;;;;1999.90;999.90;;;;;;;17.58;86.63;101365.78;10186924;29;20098;-74
2023/10/10 20:04:47;;;;;;;1999.90;999.90;;;;;;;17.84;84.60;101373.53;10172262;28;20076;-74
2023/10/10 20:09:52;;;;;;;1999.90;999.90;;;;;;;17.86;86.20;101381.34;10170366;29;20131;-63
2023/10/10 20:14:54;;;;;;;1999.90;999.90;;;;;;;18.11;83.78;101373.16;10171939;28;20048;-63
2023/10/10 20:19:56;;;;;;;1999.90;999.90;;;;;;;18.04;85.64;101371.97;10171755;28;20056;-64
2023/10/10 20:25:02;;;;;;;1999.90;999.90;;;;;;;17.78;85.51;101366.88;10171042;28;20075;-64
2023/10/10 20:30:06;;;;;;;1999.90;999.90;;;;;;;17.80;84.60;101372.06;10171495;29;20052;-63
2023/10/10 20:35:15;;;;;;;1999.90;999.90;;;;;;;17.73;85.82;101370.88;10171025;29;20056;-63
2023/10/10 20:40:21;;;;;;;1999.90;999.90;;;;;;;17.60;86.78;101363.91;10184946;29;20056;-63
2023/10/10 20:45:23;;;;;;;1999.90;999.90;;;;;;;17.63;88.70;101368.97;10171110;29;20048;-63
2023/10/10 20:50:29;;;;;;;1999.90;999.90;;;;;;;17.64;87.66;101359.19;10170275;28;20058;-63
2023/10/10 20:55:33;;;;;;;1999.90;999.90;;;;;;;17.73;88.57;101360.28;10170065;28;20436;-63
2023/10/10 21:00:35;;;;;;;1999.90;999.90;;;;;;;17.82;87.91;101355.09;10169388;28;20087;-63
2023/10/10 21:05:44;;;;;;;1999.90;999.90;;;;;;;17.61;89.19;101347.03;10200900;28;20048;-63
2023/10/10 21:10:50;;;;;;;1999.90;999.90;;;;;;;17.85;89.41;101348.69;10170356;28;20083;-63
2023/10/10 21:15:52;;;;;;;1999.90;999.90;;;;;;;17.78;88.04;101352.81;10169459;28;20456;-62
2023/10/10 21:21:02;;;;;;;1999.90;999.90;;;;;;;17.72;90.48;101354.16;10169509;28;20056;-63
2023/10/10 21:26:13;;;;;;;1999.90;999.90;;;;;;;17.71;90.28;101354.25;10169891;28;20509;-63
2023/10/10 21:31:17;;;;;;;1999.90;999.90;;;;;;;17.64;89.79;101349.44;10169744;28;20059;-63
2023/10/10 21:36:20;;;;;;;1999.90;999.90;;;;;;;17.46;91.66;101337.66;10199109;28;20572;-63
2023/10/10 21:41:23;;;;;;;1999.90;999.90;;;;;;;17.68;89.98;101343.91;10184014;29;20056;-63
2023/10/10 21:46:25;;;;;;;1999.90;999.90;;;;;;;17.55;90.42;101344.03;10168739;28;20054;-63
2023/10/10 21:51:28;;;;;;;1999.90;999.90;;;;;;;17.61;90.35;101339.09;10169247;28;20056;-63
2023/10/10 21:56:32;;;;;;;1999.90;999.90;;;;;;;17.54;90.42;101332.59;10169068;28;20110;-63
2023/10/10 22:01:35;;;;;;;1999.90;999.90;;;;;;;17.44;90.54;101329.81;10169020;28;20059;-63
2023/10/10 22:06:37;;;;;;;1999.90;999.90;;;;;;;17.33;91.31;101335.13;10168944;28;20056;-63
2023/10/10 22:11:41;;;;;;;1999.90;999.90;;;;;;;17.40;92.32;101331.03;10171119;28;20247;-63
2023/10/10 22:16:48;;;;;;;1999.90;999.90;;;;;;;17.37;91.65;101325.97;10174889;28;20489;-63
2023/10/10 22:21:50;;;;;;;1999.90;999.90;;;;;;;17.36;90.83;101332.22;10174894;28;20505;-63
2023/10/10 22:26:55;;;;;;;1999.90;999.90;;;;;;;17.33;91.88;101318.38;10174691;28;20409;-64
2023/10/10 22:31:58;;;;;;;1999.90;999.90;;;;;;;17.34;91.92;101331.50;10174563;28;20427;-63
2023/10/10 22:37:00;;;;;;;1999.90;999.90;;;;;;;17.29;91.27;101331.03;10174410;28;20143;-64
2023/10/10 22:42:11;;;;;;;1999.90;999.90;;;;;;;17.26;91.29;101324.19;10174635;29;20062;-63
2023/10/10 22:47:15;;;;;;;1999.90;999.90;;;;;;;17.26;90.45;101329.47;10174548;28;20054;-63
2023/10/10 22:52:18;;;;;;;1999.90;999.90;;;;;;;17.29;89.73;101325.72;10174451;28;20052;-64
2023/10/10 22:57:20;;;;;;;1999.90;999.90;;;;;;;17.15;90.13;101333.91;10174245;29;20048;-63
2023/10/10 23:02:22;;;;;;;1999.90;999.90;;;;;;;17.27;89.14;101338.25;10174175;28;20059;-63
2023/10/10 23:07:26;;;;;;;1999.90;999.90;;;;;;;17.14;88.29;101335.69;10174085;28;20075;-63
2023/10/10 23:12:30;;;;;;;1999.90;999.90;;;;;;;17.24;87.43;101320.78;10173867;29;20062;-63
2023/10/10 23:17:32;;;;;;;1999.90;999.90;;;;;;;17.33;87.21;101318.38;10187394;29;20374;-64
2023/10/10 23:22:35;;;;;;;1999.90;999.90;;;;;;;17.14;85.48;101327.75;10171918;29;20460;-64
2023/10/10 23:27:38;;;;;;;1999.90;999.90;;;;;;;17.19;86.53;101312.34;10187964;29;20055;-63
2023/10/10 23:32:44;;;;;;;1999.90;999.90;;;;;;;17.29;85.32;101317.78;10187240;28;20060;-63
2023/10/10 23:37:47;;;;;;;1999.90;999.90;;;;;;;17.23;84.30;101316.47;10172384;28;20056;-63
2023/10/10 23:42:51;;;;;;;1999.90;999.90;;;;;;;17.10;84.36;101313.09;10187605;28;20048;-63
2023/10/10 23:47:55;;;;;;;1999.90;999.90;;;;;;;17.27;83.70;101311.78;10187269;29;20044;-63
2023/10/10 23:53:02;;;;;;;1999.90;999.90;;;;;;;17.17;84.41;101310.81;10203044;28;20052;-63
2023/10/10 23:58:05;;;;;;;1999.90;999.90;;;;;;;17.18;84.10;101304.53;10172491;28;20048;-63
